Bentonville, Ohio
Current Conditions -  °F | °C
As of 5:35 AM on Wednesday 22 Oct 2014 (Local Time) from KFGX Reporting Station
Overcast Overcast  
Wind Chill: 40°   Ceiling: 1800
Heat Index: 44°   Visibility: 10mi
Dew Point: 39°   Wind: 7mph
Humidity: 81%   Direction: 360°N
Pressure: 30.2"   Gusts: NA
Location:  38.75°N, 83.61°W
Report Text: KFGX 220935Z AUTO 36006KT 10SM OVC018 07/04 A3020 RMK AO2 T00680038
Loading
Personal Weather Stations






























Interactive Weather Map
Tropical Storm Tracking
New forecast layout! Learn more

10-Day Weather Forecast

Advertisements
Track Severe Weather on mobile